Wetterdaten: Woche 03.04.06 - 09.04.06 (KW14)
Datum Zeit Temperatur Luftfeuchte Niederschlag Windrichtung Wind
03.04.2006 00:00 8,2 C 87 % 0,0 l/m W-SW 10,7 km/h (2 Bft)
03.04.2006 01:00 7,0 C 88 % 4,0 l/m W-NW 12,4 km/h (3 Bft)
03.04.2006 02:00 6,3 C 94 % 0,0 l/m S-SW 5,4 km/h (1 Bft)
03.04.2006 03:00 5,9 C 96 % 0,0 l/m W-SW 1,7 km/h (1 Bft)
03.04.2006 04:00 5,5 C 96 % 0,0 l/m W-SW 8,3 km/h (2 Bft)
03.04.2006 05:00 5,4 C 98 % 0,0 l/m SW 12,9 km/h (3 Bft)
03.04.2006 06:00 5,5 C 99 % 0,0 l/m SW 12,4 km/h (3 Bft)
03.04.2006 07:00 5,8 C 96 % 0,0 l/m S-SW 12,1 km/h (2 Bft)
03.04.2006 08:00 6,1 C 90 % 0,0 l/m S-SW 11,6 km/h (2 Bft)
03.04.2006 09:00 7,7 C 81 % 0,0 l/m W-SW 16,8 km/h (3 Bft)
03.04.2006 10:00 8,9 C 63 % 0,0 l/m W-SW 20,6 km/h (4 Bft)
03.04.2006 11:00 9,1 C 57 % 0,0 l/m W-SW 19,3 km/h (3 Bft)
03.04.2006 12:00 10,6 C 47 % 0,0 l/m W 27,1 km/h (4 Bft)
03.04.2006 13:00 7,3 C 65 % 1,0 l/m W 24,4 km/h (4 Bft)
03.04.2006 14:00 8,2 C 68 % 0,0 l/m W 17,8 km/h (3 Bft)
03.04.2006 15:00 11,0 C 48 % 0,0 l/m W 18,3 km/h (3 Bft)
03.04.2006 16:00 9,0 C 60 % 0,0 l/m W 20,6 km/h (4 Bft)
03.04.2006 17:00 9,5 C 59 % 0,0 l/m W 17,0 km/h (3 Bft)
03.04.2006 18:00 8,7 C 61 % 0,0 l/m W 13,4 km/h (3 Bft)
03.04.2006 19:00 8,1 C 59 % 0,0 l/m W 15,1 km/h (3 Bft)
03.04.2006 20:00 7,2 C 62 % 0,0 l/m W-SW 11,8 km/h (2 Bft)
03.04.2006 21:00 6,9 C 63 % 0,0 l/m W-SW 12,3 km/h (3 Bft)
03.04.2006 22:00 6,6 C 66 % 0,0 l/m W-SW 13,6 km/h (3 Bft)
03.04.2006 23:00 6,5 C 68 % 0,0 l/m SW 9,0 km/h (2 Bft)
04.04.2006 00:00 5,0 C 74 % 0,0 l/m N-NW 5,5 km/h (1 Bft)
04.04.2006 01:00 4,3 C 81 % 0,0 l/m NW 7,5 km/h (2 Bft)
04.04.2006 02:00 3,9 C 86 % 1,0 l/m W-NW 9,9 km/h (2 Bft)
04.04.2006 03:00 3,4 C 89 % 1,0 l/m W 8,7 km/h (2 Bft)
04.04.2006 04:00 3,2 C 91 % 0,0 l/m S-SW 2,1 km/h (1 Bft)
04.04.2006 05:00 2,9 C 94 % 1,0 l/m S-SW 4,9 km/h (1 Bft)
04.04.2006 06:00 2,1 C 94 % 0,0 l/m S 0,6 km/h (0 Bft)
04.04.2006 07:00 1,9 C 95 % 0,0 l/m S-SO 0,7 km/h (0 Bft)
04.04.2006 08:00 3,3 C 98 % 0,0 l/m SO 5,9 km/h (2 Bft)
04.04.2006 09:00 6,1 C 86 % 0,0 l/m S-SW 15,3 km/h (3 Bft)
04.04.2006 10:00 8,6 C 65 % 0,0 l/m SW 13,8 km/h (3 Bft)
04.04.2006 11:00 9,3 C 54 % 0,0 l/m W 13,5 km/h (3 Bft)
04.04.2006 12:00 10,5 C 46 % 0,0 l/m W 14,0 km/h (3 Bft)
04.04.2006 13:00 12,2 C 38 % 0,0 l/m W 15,5 km/h (3 Bft)
04.04.2006 14:00 12,2 C 41 % 0,0 l/m W 14,7 km/h (3 Bft)
04.04.2006 15:00 12,2 C 40 % 0,0 l/m W 11,4 km/h (2 Bft)
04.04.2006 16:00 11,8 C 40 % 0,0 l/m N 11,6 km/h (2 Bft)
04.04.2006 17:00 11,2 C 42 % 0,0 l/m N 13,7 km/h (3 Bft)
04.04.2006 18:00 10,4 C 43 % 0,0 l/m N 12,4 km/h (3 Bft)
04.04.2006 19:00 9,6 C 47 % 0,0 l/m N 10,5 km/h (2 Bft)
04.04.2006 20:00 8,3 C 53 % 0,0 l/m N-NO 11,5 km/h (2 Bft)
04.04.2006 21:00 7,0 C 58 % 0,0 l/m N 9,9 km/h (2 Bft)
04.04.2006 22:00 6,0 C 62 % 0,0 l/m N 13,0 km/h (3 Bft)
04.04.2006 23:00 4,9 C 72 % 0,0 l/m N 13,1 km/h (3 Bft)
05.04.2006 00:00 4,0 C 76 % 0,0 l/m N 11,9 km/h (2 Bft)
05.04.2006 01:00 3,8 C 79 % 0,0 l/m N-NO 11,0 km/h (2 Bft)
05.04.2006 02:00 3,9 C 77 % 0,0 l/m N-NO 13,2 km/h (3 Bft)
05.04.2006 03:00 4,1 C 75 % 0,0 l/m N-NO 12,5 km/h (3 Bft)
05.04.2006 04:00 4,1 C 72 % 0,0 l/m NO 11,2 km/h (2 Bft)
05.04.2006 05:00 4,0 C 74 % 0,0 l/m N 11,6 km/h (2 Bft)
05.04.2006 06:00 3,3 C 83 % 1,0 l/m N-NO 12,8 km/h (3 Bft)
05.04.2006 07:00 2,1 C 91 % 0,0 l/m N-NO 14,1 km/h (3 Bft)
05.04.2006 08:00 1,3 C 96 % 1,0 l/m N-NO 12,1 km/h (2 Bft)
05.04.2006 09:00 1,0 C 98 % 0,0 l/m N-NO 11,6 km/h (2 Bft)
05.04.2006 10:00 0,8 C 100 % 0,0 l/m N-NO 5,1 km/h (1 Bft)
05.04.2006 11:00 0,7 C 100 % 0,0 l/m N-NO 1,4 km/h (1 Bft)
05.04.2006 12:00 0,7 C 100 % 0,0 l/m N 0,0 km/h (0 Bft)
05.04.2006 13:00 0,7 C 100 % 0,0 l/m N 0,0 km/h (0 Bft)
05.04.2006 14:00 0,7 C 100 % 0,0 l/m N 0,0 km/h (0 Bft)
05.04.2006 15:00 0,7 C 100 % 0,0 l/m N 0,0 km/h (0 Bft)
05.04.2006 16:00 0,7 C 100 % 0,0 l/m N 0,0 km/h (0 Bft)
05.04.2006 17:00 0,7 C 100 % 0,0 l/m N 4,3 km/h (1 Bft)
05.04.2006 18:00 0,6 C 100 % 0,0 l/m N 12,5 km/h (3 Bft)
05.04.2006 19:00 0,6 C 100 % 0,0 l/m N 12,4 km/h (3 Bft)
05.04.2006 20:00 0,4 C 100 % 0,0 l/m N 12,0 km/h (2 Bft)
05.04.2006 21:00 0,3 C 100 % 0,0 l/m N 3,5 km/h (1 Bft)
05.04.2006 22:00 0,3 C 100 % 0,0 l/m N 0,0 km/h (0 Bft)
05.04.2006 23:00 0,2 C 100 % 0,0 l/m N 0,0 km/h (0 Bft)
06.04.2006 00:00 0,1 C 100 % 0,0 l/m N 0,0 km/h (0 Bft)
06.04.2006 01:00 -0,3 C 100 % 0,0 l/m N 0,0 km/h (0 Bft)
06.04.2006 02:00 -1,1 C 100 % 0,0 l/m N 0,0 km/h (0 Bft)
06.04.2006 03:00 -1,2 C 100 % 0,0 l/m N 0,0 km/h (0 Bft)
06.04.2006 04:00 -1,1 C 100 % 0,0 l/m N 0,0 km/h (0 Bft)
06.04.2006 05:00 -1,9 C 100 % 0,0 l/m N 0,0 km/h (0 Bft)
06.04.2006 06:00 -2,7 C 100 % 0,0 l/m N 0,0 km/h (0 Bft)
06.04.2006 07:00 -3,2 C 100 % 0,0 l/m N 0,0 km/h (0 Bft)
06.04.2006 08:00 -2,1 C 100 % 0,0 l/m N 0,0 km/h (0 Bft)
06.04.2006 09:00 -0,3 C 100 % 0,0 l/m N 0,0 km/h (0 Bft)
06.04.2006 10:00 2,0 C 82 % 0,0 l/m N-NO 1,8 km/h (1 Bft)
06.04.2006 11:00 3,1 C 68 % 0,0 l/m N-NO 12,8 km/h (3 Bft)
06.04.2006 12:00 4,1 C 64 % 3,0 l/m N-NO 11,9 km/h (2 Bft)
06.04.2006 13:00 4,7 C 56 % 3,0 l/m N-NO 14,8 km/h (3 Bft)
06.04.2006 14:00 5,7 C 50 % 5,0 l/m O 15,6 km/h (3 Bft)
06.04.2006 15:00 5,6 C 46 % 5,0 l/m O-NO 11,9 km/h (2 Bft)
06.04.2006 16:00 5,3 C 46 % 2,0 l/m O 13,7 km/h (3 Bft)
06.04.2006 17:00 5,4 C 44 % 1,0 l/m O-NO 13,9 km/h (3 Bft)
06.04.2006 18:00 5,4 C 43 % 0,0 l/m NO 13,7 km/h (3 Bft)
06.04.2006 19:00 4,0 C 47 % 0,0 l/m O-NO 8,1 km/h (2 Bft)
06.04.2006 20:00 2,0 C 56 % 0,0 l/m N 0,0 km/h (0 Bft)
06.04.2006 21:00 0,4 C 66 % 0,0 l/m N 0,0 km/h (0 Bft)
06.04.2006 22:00 -0,6 C 72 % 0,0 l/m N 0,0 km/h (0 Bft)
06.04.2006 23:00 -1,2 C 76 % 0,0 l/m N 0,0 km/h (0 Bft)
07.04.2006 00:00 -1,7 C 77 % 0,0 l/m N 0,0 km/h (0 Bft)
07.04.2006 01:00 -2,0 C 80 % 0,0 l/m W-NW 0,7 km/h (0 Bft)
07.04.2006 02:00 -2,3 C 83 % 0,0 l/m NW 2,9 km/h (1 Bft)
07.04.2006 03:00 -2,5 C 86 % 0,0 l/m N 0,1 km/h (0 Bft)
07.04.2006 04:00 -3,0 C 86 % 0,0 l/m N 0,0 km/h (0 Bft)
07.04.2006 05:00 -3,2 C 88 % 0,0 l/m N 0,0 km/h (0 Bft)
07.04.2006 06:00 -3,7 C 88 % 0,0 l/m N 0,0 km/h (0 Bft)
07.04.2006 07:00 -3,7 C 89 % 0,0 l/m N 0,0 km/h (0 Bft)
07.04.2006 08:00 -1,7 C 91 % 0,0 l/m N 0,0 km/h (0 Bft)
07.04.2006 09:00 1,3 C 83 % 0,0 l/m NW 0,6 km/h (0 Bft)
07.04.2006 10:00 4,4 C 61 % 0,0 l/m O 3,4 km/h (1 Bft)
07.04.2006 11:00 6,4 C 55 % 0,0 l/m O-NO 6,7 km/h (2 Bft)
07.04.2006 12:00 7,2 C 51 % 0,0 l/m O-NO 7,6 km/h (2 Bft)
07.04.2006 13:00 8,2 C 45 % 0,0 l/m NW 7,3 km/h (2 Bft)
07.04.2006 14:00 9,0 C 43 % 0,0 l/m N-NW 7,3 km/h (2 Bft)
07.04.2006 15:00 10,3 C 40 % 0,0 l/m NW 4,4 km/h (1 Bft)
07.04.2006 16:00 10,1 C 39 % 0,0 l/m W 6,3 km/h (2 Bft)
07.04.2006 17:00 10,5 C 39 % 0,0 l/m N-NO 5,4 km/h (1 Bft)
07.04.2006 18:00 10,5 C 39 % 0,0 l/m W 3,8 km/h (1 Bft)
07.04.2006 19:00 8,7 C 44 % 0,0 l/m O-NO 2,7 km/h (1 Bft)
07.04.2006 20:00 5,5 C 55 % 0,0 l/m N 0,0 km/h (0 Bft)
07.04.2006 21:00 3,6 C 61 % 0,0 l/m N 0,0 km/h (0 Bft)
07.04.2006 22:00 2,3 C 69 % 0,0 l/m N 0,0 km/h (0 Bft)
07.04.2006 23:00 1,3 C 74 % 0,0 l/m N 0,0 km/h (0 Bft)
08.04.2006 00:00 0,5 C 78 % 0,0 l/m N 0,0 km/h (0 Bft)
08.04.2006 01:00 -0,4 C 80 % 0,0 l/m N 0,0 km/h (0 Bft)
08.04.2006 02:00 -0,9 C 83 % 0,0 l/m N 0,0 km/h (0 Bft)
08.04.2006 03:00 -1,3 C 86 % 0,0 l/m N 0,0 km/h (0 Bft)
08.04.2006 04:00 -1,7 C 88 % 0,0 l/m N 0,0 km/h (0 Bft)
08.04.2006 05:00 -2,0 C 89 % 0,0 l/m N 0,0 km/h (0 Bft)
08.04.2006 06:00 -2,3 C 90 % 0,0 l/m N 0,0 km/h (0 Bft)
08.04.2006 07:00 -2,3 C 92 % 0,0 l/m N 0,0 km/h (0 Bft)
08.04.2006 08:00 -0,4 C 94 % 0,0 l/m N 0,0 km/h (0 Bft)
08.04.2006 09:00 3,6 C 86 % 0,0 l/m SO 6,4 km/h (2 Bft)
08.04.2006 10:00 8,1 C 59 % 0,0 l/m SO 10,6 km/h (2 Bft)
08.04.2006 11:00 10,6 C 52 % 0,0 l/m S 13,2 km/h (3 Bft)
08.04.2006 12:00 12,1 C 39 % 0,0 l/m S-SW 18,1 km/h (3 Bft)
08.04.2006 13:00 13,4 C 37 % 0,0 l/m W-SW 18,4 km/h (3 Bft)
08.04.2006 14:00 14,3 C 37 % 0,0 l/m S-SW 22,5 km/h (4 Bft)
08.04.2006 15:00 14,8 C 37 % 0,0 l/m W-SW 23,2 km/h (4 Bft)
08.04.2006 16:00 15,2 C 35 % 0,0 l/m W-SW 22,0 km/h (4 Bft)
08.04.2006 17:00 15,6 C 32 % 0,0 l/m W-SW 17,8 km/h (3 Bft)
08.04.2006 18:00 15,5 C 31 % 0,0 l/m W-SW 17,4 km/h (3 Bft)
08.04.2006 19:00 13,7 C 34 % 0,0 l/m W-SW 9,5 km/h (2 Bft)
08.04.2006 20:00 10,1 C 46 % 0,0 l/m W-SW 5,6 km/h (1 Bft)
08.04.2006 21:00 8,2 C 55 % 0,0 l/m W 6,9 km/h (2 Bft)
08.04.2006 22:00 8,9 C 51 % 0,0 l/m W 9,9 km/h (2 Bft)
08.04.2006 23:00 10,2 C 40 % 0,0 l/m W 12,7 km/h (3 Bft)
09.04.2006 00:00 8,8 C 47 % 0,0 l/m W 3,9 km/h (1 Bft)
09.04.2006 01:00 8,5 C 50 % 0,0 l/m W 14,7 km/h (3 Bft)
09.04.2006 02:00 8,6 C 53 % 0,0 l/m S-SW 8,9 km/h (2 Bft)
09.04.2006 03:00 7,5 C 66 % 0,0 l/m S-SW 10,4 km/h (2 Bft)
09.04.2006 04:00 7,2 C 76 % 0,0 l/m SW 11,4 km/h (2 Bft)
09.04.2006 05:00 7,6 C 69 % 0,0 l/m W 12,1 km/h (2 Bft)
09.04.2006 06:00 6,1 C 80 % 2,0 l/m W-SW 7,2 km/h (2 Bft)
09.04.2006 07:00 5,5 C 89 % 2,0 l/m W-SW 9,6 km/h (2 Bft)
09.04.2006 08:00 5,4 C 91 % 0,0 l/m W-SW 10,7 km/h (2 Bft)
09.04.2006 09:00 5,7 C 93 % 1,0 l/m SW 7,2 km/h (2 Bft)
09.04.2006 10:00 6,3 C 90 % 0,0 l/m W-SW 10,8 km/h (2 Bft)
09.04.2006 11:00 6,8 C 89 % 0,0 l/m W-SW 10,6 km/h (2 Bft)
09.04.2006 12:00 7,2 C 87 % 0,0 l/m W-SW 9,7 km/h (2 Bft)
09.04.2006 13:00 7,4 C 82 % 0,0 l/m S-SW 7,8 km/h (2 Bft)
09.04.2006 14:00 6,7 C 82 % 2,0 l/m W 8,2 km/h (2 Bft)
09.04.2006 15:00 6,2 C 83 % 1,0 l/m NW 11,1 km/h (2 Bft)
09.04.2006 16:00 5,4 C 85 % 1,0 l/m W 3,5 km/h (1 Bft)
09.04.2006 17:00 5,2 C 87 % 2,0 l/m N 0,0 km/h (0 Bft)
09.04.2006 18:00 5,0 C 87 % 1,0 l/m N 0,0 km/h (0 Bft)
09.04.2006 19:00 4,6 C 89 % 3,0 l/m NO 1,0 km/h (0 Bft)
09.04.2006 20:00 4,1 C 90 % 2,0 l/m N-NO 5,5 km/h (1 Bft)
09.04.2006 21:00 3,7 C 91 % 2,0 l/m N-NO 6,5 km/h (2 Bft)
09.04.2006 22:00 3,0 C 91 % 2,0 l/m N 5,9 km/h (2 Bft)
09.04.2006 23:00 2,7 C 94 % 1,0 l/m N-NO 2,5 km/h (1 Bft)
Min-Datum _ 07.04.06 08.04.06 - - 03.04.06
_ Min-Zeit 07:11 18:15 - - 00:36
Minimum _ -3,9 C 30 % - - 0,0 km/h (0 Bft)
Max-Datum _ 08.04.06 05.04.06 06.04.06 - 03.04.06
_ Max-Zeit 17:56 10:14 14:04 - 16:21
Maximum _ 16,1 C 100 % 5,0 l/m - 46,4 km/h
W (6 Bft)
Durchschnitt _ 4,8 C 74 % #51,0 l/m W-SW 7,9 km/h (2 Bft)

Durchschnitt Minimum Temp.4,3 C
Durchschnitt Maximum Temp.5,3 C